METAR AND TAF INFORMATION
METAR FOR KLXY
ADDS - METARS form results

(1728 UTC 20 January 2019)
Data provider http://aviationweather.gov/metar/data/
 
METAR text: KLXY 201715Z AUTO 31005KT 10SM CLR 03/M06 A3043 RMK AO2 T00271057
Conditions at: KLXY (MEXIA LIMESTONE , TX, US) observed 1715 UTC 20 January 2019
Temperature: 2.7°C (37°F)
Dewpoint: -5.7°C (22°F) [RH = 54%]
Pressure (altimeter): 30.43 inches Hg (1030.6 mb)
Winds: from the NW (310 degrees) at 6 MPH (5 knots; 2.6 m/s)
Visibility: 10 or more miles (16+ km)
Ceiling: at least 12,000 feet AGL
Clouds: sky clear below 12,000 feet AGL
Weather: automated observation with no human augmentation;
there may or may not be significant weather present at this time

METAR text: KLXY 201655Z AUTO 31003KT 10SM CLR 02/M06 A3043 RMK AO2 T00191063
Conditions at: KLXY (MEXIA LIMESTONE , TX, US) observed 1655 UTC 20 January 2019
Temperature: 1.9°C (35°F)
Dewpoint: -6.3°C (21°F) [RH = 54%]
Pressure (altimeter): 30.43 inches Hg (1030.6 mb)
Winds: from the NW (310 degrees) at 3 MPH (3 knots; 1.5 m/s)
Visibility: 10 or more miles (16+ km)
Ceiling: at least 12,000 feet AGL
Clouds: sky clear below 12,000 feet AGL
Weather: automated observation with no human augmentation;
there may or may not be significant weather present at this time

METAR text: KLXY 201635Z AUTO 31008KT 10SM CLR 02/M06 A3044 RMK AO2 T00151061
Conditions at: KLXY (MEXIA LIMESTONE , TX, US) observed 1635 UTC 20 January 2019
Temperature: 1.5°C (35°F)
Dewpoint: -6.1°C (21°F) [RH = 57%]
Pressure (altimeter): 30.44 inches Hg (1030.9 mb)
Winds: from the NW (310 degrees) at 9 MPH (8 knots; 4.1 m/s)
Visibility: 10 or more miles (16+ km)
Ceiling: at least 12,000 feet AGL
Clouds: sky clear below 12,000 feet AGL
Weather: automated observation with no human augmentation;
there may or may not be significant weather present at this time

 AIRPORT MAP

 RUNWAY INFORMATION
Runway 18 Runway length 4002 ft Runway width 60 ft
Runway elevation 544 ft Runway displaced threshold 0 ft Runway heading 189
Runway 36 Runway length 4002 ft Runway width 60 ft
Runway elevation 533 ft Runway displaced threshold 0 ft Runway heading 9

 AIRPORT FREQUENCIES
Type A/D Name WACO APP/D Frequency 135.2 MHZ
Type UNIC Name CTAF/UNICO Frequency 122.8 MHZ

 AIRPORT NEAR NAVIGATION AIDS


... ... ... ... ... ...

© Copyright 2017 All Rights Reserved. Virtual NATO is in no way affiliated with NATO or any of the NATO Members

Virtual NATO is a volunteer not for profit group of friends with the common interest in promoting enjoyment and education through the simulation of military operations and procedure through the use of operating standards within several flight simulation platforms.

Powered by Virtual Airlines Manager [v2.6.2] Customized by Virtual NATO